Time,TemperatureF,DewpointF,PressureIn,WindDirection,WindDirectionDegrees,WindSpeedMPH,WindSpeedGustMPH,Humidity,HourlyPrecipIn,Conditions,Clouds,dailyrainin,SoftwareType,DateUTC
2013-03-24 00:00:00,33.8,24.7,30.24,NW,315,4.5,8.3,69,0.00,,,0.00,pywws,2013-03-24 00:00:00,
2013-03-24 00:05:00,33.8,24.7,30.23,North,0,3.1,6.0,69,0.00,,,0.00,pywws,2013-03-24 00:05:00,
2013-03-24 00:10:00,33.8,24.4,30.24,SW,225,3.1,8.3,68,0.00,,,0.00,pywws,2013-03-24 00:10:00,
2013-03-24 00:15:00,33.8,24.4,30.23,South,180,2.2,6.9,68,0.00,,,0.00,pywws,2013-03-24 00:15:00,
2013-03-24 00:20:00,33.8,24.4,30.23,North,0,4.5,8.3,68,0.00,,,0.00,pywws,2013-03-24 00:20:00,
2013-03-24 00:25:00,33.8,24.4,30.23,West,270,3.8,11.4,68,0.00,,,0.00,pywws,2013-03-24 00:25:00,
2013-03-24 00:30:00,33.8,24.4,30.23,NNW,338,3.8,8.3,68,0.00,,,0.00,pywws,2013-03-24 00:30:00,
2013-03-24 00:35:00,33.8,24.7,30.23,SE,135,3.1,6.0,69,0.00,,,0.00,pywws,2013-03-24 00:35:00,
2013-03-24 00:40:00,33.8,25.1,30.23,South,180,3.8,8.3,70,0.00,,,0.00,pywws,2013-03-24 00:40:00,
2013-03-24 00:45:00,33.6,24.9,30.23,SW,225,3.8,7.6,70,0.00,,,0.00,pywws,2013-03-24 00:45:00,
2013-03-24 00:50:00,33.6,24.9,30.23,SW,225,2.2,7.6,70,0.00,,,0.00,pywws,2013-03-24 00:50:00,
2013-03-24 01:00:00,33.6,24.9,30.23,WNW,292,2.2,6.0,70,0.00,,,0.00,pywws,2013-03-24 01:00:00,
2013-03-24 01:05:00,33.6,24.6,30.23,SW,225,3.1,7.6,69,0.00,,,0.00,pywws,2013-03-24 01:05:00,
2013-03-24 01:10:00,33.8,24.4,30.23,SW,225,3.8,12.1,68,0.00,,,0.00,pywws,2013-03-24 01:10:00,
2013-03-24 01:15:00,33.8,24.4,30.23,SW,225,3.1,6.9,68,0.00,,,0.00,pywws,2013-03-24 01:15:00,
2013-03-24 01:20:00,33.8,24.4,30.23,West,270,6.0,14.5,68,0.00,,,0.00,pywws,2013-03-24 01:20:00,
2013-03-24 01:25:00,33.8,24.4,30.23,NW,315,3.1,6.0,68,0.00,,,0.00,pywws,2013-03-24 01:25:00,
2013-03-24 01:30:00,33.6,24.2,30.23,South,180,2.2,6.0,68,0.00,,,0.00,pywws,2013-03-24 01:30:00,
2013-03-24 01:35:00,33.6,24.2,30.23,SW,225,2.2,7.6,68,0.00,,,0.00,pywws,2013-03-24 01:35:00,
2013-03-24 01:40:00,33.6,24.6,30.23,SW,225,3.8,8.3,69,0.00,,,0.00,pywws,2013-03-24 01:40:00,
2013-03-24 01:45:00,33.6,24.9,30.23,NNE,22,3.8,7.6,70,0.00,,,0.00,pywws,2013-03-24 01:45:00,
2013-03-24 01:50:00,33.6,25.2,30.23,South,180,3.1,6.9,71,0.00,,,0.00,pywws,2013-03-24 01:50:00,
2013-03-24 02:00:00,33.6,25.2,30.23,SW,225,3.1,7.6,71,0.00,,,0.00,pywws,2013-03-24 02:00:00,
2013-03-24 02:05:00,33.4,25.7,30.23,SE,135,3.1,6.0,73,0.00,,,0.00,pywws,2013-03-24 02:05:00,
2013-03-24 02:10:00,33.4,26.1,30.23,South,180,3.8,8.3,74,0.00,,,0.00,pywws,2013-03-24 02:10:00,
2013-03-24 02:15:00,33.3,25.6,30.23,South,180,4.5,10.7,73,0.00,,,0.00,pywws,2013-03-24 02:15:00,
2013-03-24 02:20:00,33.4,25.1,30.23,SSE,158,5.4,9.2,71,0.00,,,0.00,pywws,2013-03-24 02:20:00,
2013-03-24 02:25:00,33.4,24.7,30.23,SW,225,6.0,12.1,70,0.00,,,0.00,pywws,2013-03-24 02:25:00,
2013-03-24 02:30:00,33.6,24.9,30.23,NW,315,3.8,6.9,70,0.00,,,0.00,pywws,2013-03-24 02:30:00,
2013-03-24 02:35:00,33.6,24.9,30.23,WSW,248,5.4,9.8,70,0.00,,,0.00,pywws,2013-03-24 02:35:00,
2013-03-24 02:40:00,33.6,24.9,30.22,SE,135,3.8,8.3,70,0.00,,,0.00,pywws,2013-03-24 02:40:00,
2013-03-24 02:45:00,33.4,24.4,30.22,SW,225,3.8,6.9,69,0.00,,,0.00,pywws,2013-03-24 02:45:00,
2013-03-24 02:50:00,33.6,24.6,30.22,SE,135,4.5,7.6,69,0.00,,,0.00,pywws,2013-03-24 02:50:00,
2013-03-24 03:00:00,33.6,24.6,30.23,North,0,5.4,13.0,69,0.00,,,0.00,pywws,2013-03-24 03:00:00,
2013-03-24 03:05:00,33.4,25.1,30.22,ESE,112,3.8,6.9,71,0.00,,,0.00,pywws,2013-03-24 03:05:00,
2013-03-24 03:10:00,33.4,25.1,30.23,North,0,3.1,6.9,71,0.00,,,0.00,pywws,2013-03-24 03:10:00,
2013-03-24 03:15:00,33.4,25.4,30.23,SSE,158,2.2,6.0,72,0.00,,,0.00,pywws,2013-03-24 03:15:00,
2013-03-24 03:20:00,33.4,25.4,30.23,West,270,4.5,9.2,72,0.00,,,0.00,pywws,2013-03-24 03:20:00,
2013-03-24 03:25:00,33.4,25.4,30.23,South,180,3.1,8.3,72,0.00,,,0.00,pywws,2013-03-24 03:25:00,
2013-03-24 03:30:00,33.3,25.2,30.23,SSE,158,3.1,6.9,72,0.00,,,0.00,pywws,2013-03-24 03:30:00,
2013-03-24 03:35:00,33.3,25.2,30.23,SW,225,3.8,10.7,72,0.00,,,0.00,pywws,2013-03-24 03:35:00,
2013-03-24 03:40:00,33.3,25.6,30.23,South,180,6.9,11.4,73,0.00,,,0.00,pywws,2013-03-24 03:40:00,
2013-03-24 03:45:00,33.3,25.6,30.24,NE,45,2.2,4.5,73,0.00,,,0.00,pywws,2013-03-24 03:45:00,
2013-03-24 03:50:00,33.3,25.6,30.23,South,180,3.1,6.0,73,0.00,,,0.00,pywws,2013-03-24 03:50:00,
2013-03-24 04:00:00,33.3,25.2,30.23,NW,315,2.2,5.4,72,0.00,,,0.00,pywws,2013-03-24 04:00:00,
2013-03-24 04:05:00,33.4,25.1,30.23,SE,135,1.6,3.8,71,0.00,,,0.00,pywws,2013-03-24 04:05:00,
2013-03-24 04:10:00,33.4,24.7,30.24,East,90,1.6,4.5,70,0.00,,,0.00,pywws,2013-03-24 04:10:00,
2013-03-24 04:15:00,33.4,24.7,30.24,South,180,1.6,5.4,70,0.00,,,0.00,pywws,2013-03-24 04:15:00,
2013-03-24 04:20:00,33.4,24.0,30.23,ENE,68,3.1,9.2,68,0.00,,,0.00,pywws,2013-03-24 04:20:00,
2013-03-24 04:25:00,33.4,24.0,30.24,NW,315,5.4,14.5,68,0.00,,,0.00,pywws,2013-03-24 04:25:00,
2013-03-24 04:30:00,33.4,24.0,30.24,South,180,5.4,10.7,68,0.00,,,0.00,pywws,2013-03-24 04:30:00,
2013-03-24 04:35:00,33.4,24.0,30.24,SSE,158,3.8,6.9,68,0.00,,,0.00,pywws,2013-03-24 04:35:00,
2013-03-24 04:40:00,33.4,24.0,30.24,SW,225,5.4,8.3,68,0.00,,,0.00,pywws,2013-03-24 04:40:00,
2013-03-24 04:45:00,33.4,24.0,30.24,SW,225,3.1,6.9,68,0.00,,,0.00,pywws,2013-03-24 04:45:00,
2013-03-24 04:50:00,33.3,24.2,30.24,SW,225,3.1,9.2,69,0.00,,,0.00,pywws,2013-03-24 04:50:00,
2013-03-24 05:00:00,33.3,24.6,30.24,South,180,4.5,9.2,70,0.00,,,0.00,pywws,2013-03-24 05:00:00,
2013-03-24 05:05:00,33.3,24.9,30.24,North,0,1.6,4.5,71,0.00,,,0.00,pywws,2013-03-24 05:05:00,
2013-03-24 05:10:00,33.3,24.9,30.24,SE,135,4.5,10.7,71,0.00,,,0.00,pywws,2013-03-24 05:10:00,
2013-03-24 05:15:00,33.3,24.9,30.24,SE,135,0.7,2.2,71,0.00,,,0.00,pywws,2013-03-24 05:15:00,
2013-03-24 05:20:00,33.3,24.6,30.24,North,0,3.8,7.6,70,0.00,,,0.00,pywws,2013-03-24 05:20:00,
2013-03-24 05:25:00,33.3,24.6,30.24,South,180,2.2,3.8,70,0.00,,,0.00,pywws,2013-03-24 05:25:00,
2013-03-24 05:30:00,33.3,24.6,30.24,South,180,4.5,9.2,70,0.00,,,0.00,pywws,2013-03-24 05:30:00,
2013-03-24 05:35:00,33.3,24.6,30.24,East,90,1.6,3.1,70,0.00,,,0.00,pywws,2013-03-24 05:35:00,
2013-03-24 05:40:00,33.3,24.6,30.24,NW,315,4.5,8.3,70,0.00,,,0.00,pywws,2013-03-24 05:40:00,
2013-03-24 05:45:00,33.3,24.2,30.24,SSE,158,3.1,6.9,69,0.00,,,0.00,pywws,2013-03-24 05:45:00,
2013-03-24 05:50:00,33.3,23.9,30.25,West,270,3.1,6.0,68,0.00,,,0.00,pywws,2013-03-24 05:50:00,
2013-03-24 06:00:00,33.3,24.2,30.24,North,0,3.1,6.9,69,0.00,,,0.00,pywws,2013-03-24 06:00:00,
2013-03-24 06:05:00,33.4,24.0,30.24,South,180,2.2,4.5,68,0.00,,,0.00,pywws,2013-03-24 06:05:00,
2013-03-24 06:10:00,33.4,24.4,30.24,NE,45,2.2,6.9,69,0.00,,,0.00,pywws,2013-03-24 06:10:00,
2013-03-24 06:15:00,33.4,24.0,30.24,SW,225,3.8,6.9,68,0.00,,,0.00,pywws,2013-03-24 06:15:00,
2013-03-24 06:20:00,33.4,24.0,30.24,South,180,4.5,8.3,68,0.00,,,0.00,pywws,2013-03-24 06:20:00,
2013-03-24 06:25:00,33.4,24.0,30.24,SW,225,3.8,7.6,68,0.00,,,0.00,pywws,2013-03-24 06:25:00,
2013-03-24 06:30:00,33.4,24.0,30.25,North,0,3.1,6.0,68,0.00,,,0.00,pywws,2013-03-24 06:30:00,
2013-03-24 06:35:00,33.4,24.0,30.24,NW,315,3.1,6.0,68,0.00,,,0.00,pywws,2013-03-24 06:35:00,
2013-03-24 06:40:00,33.4,23.7,30.25,SE,135,1.6,4.5,67,0.00,,,0.00,pywws,2013-03-24 06:40:00,
2013-03-24 06:45:00,33.6,23.5,30.25,SW,225,6.0,13.0,66,0.00,,,0.00,pywws,2013-03-24 06:45:00,
2013-03-24 06:50:00,33.6,23.1,30.25,SW,225,3.8,7.6,65,0.00,,,0.00,pywws,2013-03-24 06:50:00,
2013-03-24 07:00:00,33.6,22.8,30.25,SSW,202,3.8,7.6,64,0.00,,,0.00,pywws,2013-03-24 07:00:00,
2013-03-24 07:05:00,33.8,23.3,30.25,East,90,4.5,9.8,65,0.00,,,0.00,pywws,2013-03-24 07:05:00,
2013-03-24 07:10:00,33.8,23.3,30.25,NW,315,3.1,6.0,65,0.00,,,0.00,pywws,2013-03-24 07:10:00,
2013-03-24 07:15:00,33.8,23.3,30.25,West,270,2.2,4.5,65,0.00,,,0.00,pywws,2013-03-24 07:15:00,
2013-03-24 07:20:00,33.8,23.7,30.26,NW,315,3.1,6.0,66,0.00,,,0.00,pywws,2013-03-24 07:20:00,
2013-03-24 07:25:00,33.8,24.0,30.26,SW,225,4.5,9.8,67,0.00,,,0.00,pywws,2013-03-24 07:25:00,
2013-03-24 07:30:00,33.8,23.7,30.26,NW,315,4.5,9.2,66,0.00,,,0.00,pywws,2013-03-24 07:30:00,
2013-03-24 07:35:00,34.0,23.5,30.26,West,270,3.1,6.0,65,0.00,,,0.00,pywws,2013-03-24 07:35:00,
2013-03-24 07:40:00,34.0,23.5,30.26,South,180,3.8,6.9,65,0.00,,,0.00,pywws,2013-03-24 07:40:00,
2013-03-24 07:45:00,34.2,23.6,30.27,SW,225,3.8,10.7,65,0.00,,,0.00,pywws,2013-03-24 07:45:00,
2013-03-24 07:50:00,34.2,24.0,30.26,SW,225,2.2,4.5,66,0.00,,,0.00,pywws,2013-03-24 07:50:00,
2013-03-24 08:00:00,34.3,23.8,30.26,SW,225,3.8,8.3,65,0.00,,,0.00,pywws,2013-03-24 08:00:00,
2013-03-24 08:05:00,34.3,24.5,30.27,South,180,2.2,6.0,67,0.00,,,0.00,pywws,2013-03-24 08:05:00,
2013-03-24 08:10:00,34.3,24.2,30.27,East,90,1.6,4.5,66,0.00,,,0.00,pywws,2013-03-24 08:10:00,
2013-03-24 08:15:00,34.5,24.4,30.27,North,0,3.8,9.8,66,0.00,,,0.00,pywws,2013-03-24 08:15:00,
2013-03-24 08:20:00,34.7,24.2,30.27,SSW,202,2.2,7.6,65,0.00,,,0.00,pywws,2013-03-24 08:20:00,
2013-03-24 08:25:00,34.7,24.2,30.27,NW,315,3.1,7.6,65,0.00,,,0.00,pywws,2013-03-24 08:25:00,
2013-03-24 08:30:00,34.9,24.0,30.27,SSW,202,3.1,9.2,64,0.00,,,0.00,pywws,2013-03-24 08:30:00,
2013-03-24 08:35:00,34.9,24.3,30.27,SSE,158,3.8,9.2,65,0.00,,,0.00,pywws,2013-03-24 08:35:00,
2013-03-24 08:40:00,35.1,24.9,30.27,SW,225,3.1,6.0,66,0.00,,,0.00,pywws,2013-03-24 08:40:00,
2013-03-24 08:45:00,35.2,24.7,30.27,SW,225,4.5,9.2,65,0.00,,,0.00,pywws,2013-03-24 08:45:00,
2013-03-24 08:50:00,35.2,24.7,30.27,SW,225,3.8,12.1,65,0.00,,,0.00,pywws,2013-03-24 08:50:00,
2013-03-24 09:00:00,35.1,24.5,30.27,SE,135,3.1,7.6,65,0.00,,,0.00,pywws,2013-03-24 09:00:00,
2013-03-24 09:05:00,35.2,25.0,30.27,SE,135,4.5,9.8,66,0.00,,,0.00,pywws,2013-03-24 09:05:00,
2013-03-24 09:10:00,35.2,25.0,30.27,NW,315,3.8,7.6,66,0.00,,,0.00,pywws,2013-03-24 09:10:00,
2013-03-24 09:15:00,35.2,25.0,30.27,SE,135,3.8,12.1,66,0.00,,,0.00,pywws,2013-03-24 09:15:00,
2013-03-24 09:20:00,36.9,25.8,30.27,NW,315,2.2,6.9,64,0.00,,,0.00,pywws,2013-03-24 09:20:00,
2013-03-24 09:25:00,36.3,24.6,30.27,SW,225,3.1,6.9,62,0.00,,,0.00,pywws,2013-03-24 09:25:00,
2013-03-24 09:30:00,36.0,23.4,30.27,East,90,2.2,6.9,60,0.00,,,0.00,pywws,2013-03-24 09:30:00,
2013-03-24 09:35:00,36.0,23.0,30.28,East,90,3.1,8.3,59,0.00,,,0.00,pywws,2013-03-24 09:35:00,
2013-03-24 09:40:00,36.0,23.4,30.28,North,0,4.5,10.7,60,0.00,,,0.00,pywws,2013-03-24 09:40:00,
2013-03-24 09:45:00,36.1,24.0,30.27,SW,225,3.1,7.6,61,0.00,,,0.00,pywws,2013-03-24 09:45:00,
2013-03-24 09:50:00,36.5,24.3,30.27,North,0,3.1,6.9,61,0.00,,,0.00,pywws,2013-03-24 09:50:00,
2013-03-24 10:00:00,36.1,24.0,30.28,West,270,5.4,11.4,61,0.00,,,0.00,pywws,2013-03-24 10:00:00,
2013-03-24 10:05:00,36.0,24.2,30.27,South,180,4.5,9.2,62,0.00,,,0.00,pywws,2013-03-24 10:05:00,
2013-03-24 10:10:00,36.3,24.9,30.27,West,270,2.2,7.6,63,0.00,,,0.00,pywws,2013-03-24 10:10:00,
2013-03-24 10:15:00,36.5,24.3,30.28,North,0,3.8,10.7,61,0.00,,,0.00,pywws,2013-03-24 10:15:00,
2013-03-24 10:20:00,36.1,24.0,30.28,South,180,4.5,8.3,61,0.00,,,0.00,pywws,2013-03-24 10:20:00,
2013-03-24 10:25:00,36.3,24.6,30.28,South,180,4.5,9.2,62,0.00,,,0.00,pywws,2013-03-24 10:25:00,
2013-03-24 10:30:00,36.5,24.0,30.27,SW,225,5.4,15.9,60,0.00,,,0.00,pywws,2013-03-24 10:30:00,
2013-03-24 10:35:00,36.5,23.6,30.28,South,180,6.9,13.0,59,0.00,,,0.00,pywws,2013-03-24 10:35:00,
2013-03-24 10:40:00,36.0,23.8,30.28,East,90,3.8,9.2,61,0.00,,,0.00,pywws,2013-03-24 10:40:00,
2013-03-24 10:45:00,36.1,24.0,30.28,NW,315,5.4,11.4,61,0.00,,,0.00,pywws,2013-03-24 10:45:00,
2013-03-24 10:50:00,36.1,24.0,30.28,NE,45,4.5,9.2,61,0.00,,,0.00,pywws,2013-03-24 10:50:00,
2013-03-24 11:00:00,36.0,23.8,30.27,SE,135,3.8,10.7,61,0.00,,,0.00,pywws,2013-03-24 11:00:00,
2013-03-24 11:05:00,36.5,24.3,30.27,SW,225,4.5,13.0,61,0.00,,,0.00,pywws,2013-03-24 11:05:00,
2013-03-24 11:10:00,36.3,24.2,30.27,North,0,2.2,4.5,61,0.00,,,0.00,pywws,2013-03-24 11:10:00,
2013-03-24 11:15:00,36.7,24.1,30.27,NW,315,3.1,6.0,60,0.00,,,0.00,pywws,2013-03-24 11:15:00,
2013-03-24 11:20:00,37.0,23.7,30.28,West,270,3.1,5.4,58,0.00,,,0.00,pywws,2013-03-24 11:20:00,
2013-03-24 11:25:00,37.0,23.2,30.27,NW,315,3.8,9.2,57,0.00,,,0.00,pywws,2013-03-24 11:25:00,
2013-03-24 11:30:00,37.0,23.2,30.28,WNW,292,6.0,13.6,57,0.00,,,0.00,pywws,2013-03-24 11:30:00,
2013-03-24 11:35:00,36.9,23.5,30.27,South,180,3.8,10.7,58,0.00,,,0.00,pywws,2013-03-24 11:35:00,
2013-03-24 11:40:00,36.5,23.1,30.28,WSW,248,4.5,11.4,58,0.00,,,0.00,pywws,2013-03-24 11:40:00,
2013-03-24 11:45:00,36.5,23.1,30.28,South,180,3.8,7.6,58,0.00,,,0.00,pywws,2013-03-24 11:45:00,
2013-03-24 11:50:00,36.3,23.4,30.28,West,270,3.1,7.6,59,0.00,,,0.00,pywws,2013-03-24 11:50:00,
2013-03-24 12:00:00,36.5,23.6,30.28,SSW,202,5.4,14.5,59,0.00,,,0.00,pywws,2013-03-24 12:00:00,
2013-03-24 12:05:00,37.4,24.0,30.27,NE,45,3.1,9.2,58,0.00,,,0.00,pywws,2013-03-24 12:05:00,
2013-03-24 12:10:00,37.2,24.2,30.27,SSE,158,4.5,9.8,59,0.00,,,0.00,pywws,2013-03-24 12:10:00,
2013-03-24 12:15:00,37.2,24.2,30.28,NW,315,3.8,9.8,59,0.00,,,0.00,pywws,2013-03-24 12:15:00,
2013-03-24 12:20:00,37.0,24.1,30.28,NW,315,6.0,10.7,59,0.00,,,0.00,pywws,2013-03-24 12:20:00,
2013-03-24 12:25:00,37.6,25.0,30.28,NE,45,4.5,8.3,60,0.00,,,0.00,pywws,2013-03-24 12:25:00,
2013-03-24 12:30:00,37.6,24.2,30.27,East,90,3.8,7.6,58,0.00,,,0.00,pywws,2013-03-24 12:30:00,
2013-03-24 12:35:00,37.4,24.8,30.27,South,180,3.1,9.2,60,0.00,,,0.00,pywws,2013-03-24 12:35:00,
2013-03-24 12:40:00,36.9,25.5,30.28,SE,135,7.6,18.3,63,0.00,,,0.00,pywws,2013-03-24 12:40:00,
2013-03-24 12:45:00,36.5,25.9,30.28,SW,225,3.8,8.3,65,0.00,,,0.00,pywws,2013-03-24 12:45:00,
2013-03-24 12:50:00,37.2,26.6,30.28,South,180,1.6,3.1,65,0.00,,,0.00,pywws,2013-03-24 12:50:00,
2013-03-24 13:00:00,38.1,26.7,30.27,SSE,158,2.2,5.4,63,0.00,,,0.00,pywws,2013-03-24 13:00:00,
2013-03-24 13:05:00,37.8,25.5,30.27,SE,135,5.4,9.2,61,0.00,,,0.00,pywws,2013-03-24 13:05:00,
2013-03-24 13:10:00,37.4,25.6,30.28,East,90,6.0,9.8,62,0.00,,,0.00,pywws,2013-03-24 13:10:00,
2013-03-24 13:15:00,37.2,25.8,30.28,NW,315,4.5,9.8,63,0.00,,,0.00,pywws,2013-03-24 13:15:00,
2013-03-24 13:20:00,37.2,26.6,30.28,North,0,3.8,10.7,65,0.00,,,0.00,pywws,2013-03-24 13:20:00,
2013-03-24 13:25:00,37.2,26.2,30.28,SW,225,3.8,6.0,64,0.00,,,0.00,pywws,2013-03-24 13:25:00,
2013-03-24 13:30:00,37.4,26.0,30.27,South,180,6.0,14.5,63,0.00,,,0.00,pywws,2013-03-24 13:30:00,
2013-03-24 13:35:00,37.2,24.6,30.27,NE,45,3.1,6.0,60,0.00,,,0.00,pywws,2013-03-24 13:35:00,
2013-03-24 13:40:00,37.4,24.8,30.28,SE,135,6.0,13.6,60,0.00,,,0.00,pywws,2013-03-24 13:40:00,
2013-03-24 13:45:00,37.0,24.5,30.27,NW,315,3.8,12.1,60,0.00,,,0.00,pywws,2013-03-24 13:45:00,
2013-03-24 13:50:00,36.9,24.7,30.28,NE,45,4.5,10.7,61,0.00,,,0.00,pywws,2013-03-24 13:50:00,
2013-03-24 14:00:00,36.7,25.3,30.28,SW,225,3.1,5.4,63,0.00,,,0.00,pywws,2013-03-24 14:00:00,
2013-03-24 14:05:00,37.0,26.0,30.28,South,180,4.5,12.1,64,0.00,,,0.00,pywws,2013-03-24 14:05:00,
2013-03-24 14:10:00,37.0,26.0,30.28,NNW,338,3.1,6.0,64,0.00,,,0.00,pywws,2013-03-24 14:10:00,
2013-03-24 14:15:00,36.7,26.0,30.27,SSE,158,5.4,7.6,65,0.00,,,0.00,pywws,2013-03-24 14:15:00,
2013-03-24 14:20:00,36.3,25.7,30.28,East,90,3.1,6.9,65,0.00,,,0.00,pywws,2013-03-24 14:20:00,
2013-03-24 14:25:00,36.1,25.9,30.27,NW,315,1.6,3.1,66,0.00,,,0.00,pywws,2013-03-24 14:25:00,
2013-03-24 14:30:00,36.1,25.2,30.28,SE,135,3.1,7.6,64,0.00,,,0.00,pywws,2013-03-24 14:30:00,
2013-03-24 14:35:00,36.1,25.5,30.28,ESE,112,0.7,3.8,65,0.00,,,0.00,pywws,2013-03-24 14:35:00,
2013-03-24 14:40:00,36.1,25.2,30.28,South,180,2.2,6.0,64,0.00,,,0.00,pywws,2013-03-24 14:40:00,
2013-03-24 14:45:00,36.1,24.8,30.28,East,90,5.4,13.0,63,0.00,,,0.00,pywws,2013-03-24 14:45:00,
2013-03-24 14:50:00,36.1,24.0,30.28,SW,225,3.8,6.0,61,0.00,,,0.00,pywws,2013-03-24 14:50:00,
2013-03-24 15:00:00,36.1,24.0,30.28,NE,45,3.8,9.2,61,0.00,,,0.00,pywws,2013-03-24 15:00:00,
2013-03-24 15:05:00,36.3,23.8,30.28,NE,45,6.0,13.6,60,0.00,,,0.00,pywws,2013-03-24 15:05:00,
2013-03-24 15:10:00,36.3,23.8,30.28,North,0,5.4,10.7,60,0.00,,,0.00,pywws,2013-03-24 15:10:00,
2013-03-24 15:15:00,36.5,24.0,30.28,NW,315,5.4,17.5,60,0.00,,,0.00,pywws,2013-03-24 15:15:00,
2013-03-24 15:20:00,36.3,24.2,30.28,South,180,3.1,9.2,61,0.00,,,0.00,pywws,2013-03-24 15:20:00,
2013-03-24 15:25:00,36.1,24.4,30.28,WNW,292,3.1,8.3,62,0.00,,,0.00,pywws,2013-03-24 15:25:00,
2013-03-24 15:30:00,36.1,24.8,30.28,East,90,2.2,9.2,63,0.00,,,0.00,pywws,2013-03-24 15:30:00,
2013-03-24 15:35:00,36.0,25.4,30.28,South,180,5.4,15.2,65,0.00,,,0.00,pywws,2013-03-24 15:35:00,
2013-03-24 15:40:00,35.8,25.6,30.28,SW,225,3.1,6.0,66,0.00,,,0.00,pywws,2013-03-24 15:40:00,
2013-03-24 15:45:00,35.8,25.6,30.28,WNW,292,3.8,8.3,66,0.00,,,0.00,pywws,2013-03-24 15:45:00,
2013-03-24 15:50:00,35.8,25.9,30.27,South,180,3.1,7.6,67,0.00,,,0.00,pywws,2013-03-24 15:50:00,
2013-03-24 16:00:00,35.6,26.4,30.27,South,180,5.4,10.7,69,0.00,,,0.00,pywws,2013-03-24 16:00:00,
2013-03-24 16:05:00,35.6,27.1,30.28,SW,225,2.2,7.6,71,0.00,,,0.00,pywws,2013-03-24 16:05:00,
2013-03-24 16:10:00,35.6,27.1,30.27,North,0,4.5,6.9,71,0.00,,,0.00,pywws,2013-03-24 16:10:00,
2013-03-24 16:15:00,35.6,26.4,30.27,SW,225,6.0,15.9,69,0.00,,,0.00,pywws,2013-03-24 16:15:00,
2013-03-24 16:20:00,35.8,26.3,30.27,SSE,158,3.8,10.7,68,0.00,,,0.00,pywws,2013-03-24 16:20:00,
2013-03-24 16:25:00,35.8,26.3,30.27,SW,225,4.5,8.3,68,0.00,,,0.00,pywws,2013-03-24 16:25:00,
2013-03-24 16:30:00,35.6,26.4,30.28,SE,135,4.5,8.3,69,0.00,,,0.00,pywws,2013-03-24 16:30:00,
2013-03-24 16:35:00,35.6,26.8,30.27,NW,315,3.1,8.3,70,0.00,,,0.00,pywws,2013-03-24 16:35:00,
2013-03-24 16:40:00,35.4,27.3,30.28,North,0,3.8,8.3,72,0.00,,,0.00,pywws,2013-03-24 16:40:00,
2013-03-24 16:45:00,35.2,27.1,30.28,NW,315,3.8,9.2,72,0.00,,,0.00,pywws,2013-03-24 16:45:00,
2013-03-24 16:50:00,35.2,27.5,30.28,South,180,3.1,6.9,73,0.00,,,0.00,pywws,2013-03-24 16:50:00,
2013-03-24 17:00:00,35.2,27.8,30.28,SW,225,1.6,4.5,74,0.00,,,0.00,pywws,2013-03-24 17:00:00,
2013-03-24 17:05:00,35.2,27.1,30.28,North,0,2.2,6.0,72,0.00,,,0.00,pywws,2013-03-24 17:05:00,
2013-03-24 17:10:00,35.2,26.8,30.28,South,180,4.5,9.2,71,0.00,,,0.00,pywws,2013-03-24 17:10:00,
2013-03-24 17:15:00,35.4,27.0,30.28,SE,135,2.2,6.0,71,0.00,,,0.00,pywws,2013-03-24 17:15:00,
2013-03-24 17:20:00,35.4,26.6,30.28,SSE,158,3.8,8.3,70,0.00,,,0.00,pywws,2013-03-24 17:20:00,
2013-03-24 17:25:00,35.4,26.6,30.29,South,180,3.8,10.7,70,0.00,,,0.00,pywws,2013-03-24 17:25:00,
2013-03-24 17:30:00,35.4,26.3,30.29,SE,135,4.5,10.7,69,0.00,,,0.00,pywws,2013-03-24 17:30:00,
2013-03-24 17:35:00,35.2,26.5,30.29,West,270,3.1,6.0,70,0.00,,,0.00,pywws,2013-03-24 17:35:00,
2013-03-24 17:40:00,35.1,26.6,30.29,WSW,248,4.5,9.8,71,0.00,,,0.00,pywws,2013-03-24 17:40:00,
2013-03-24 17:45:00,35.1,26.6,30.29,South,180,3.8,7.6,71,0.00,,,0.00,pywws,2013-03-24 17:45:00,
2013-03-24 17:50:00,34.9,26.4,30.29,NW,315,3.8,6.9,71,0.00,,,0.00,pywws,2013-03-24 17:50:00,
2013-03-24 18:00:00,34.9,26.4,30.29,North,0,3.8,10.7,71,0.00,,,0.00,pywws,2013-03-24 18:00:00,
2013-03-24 18:05:00,34.5,26.1,30.30,SW,225,1.6,3.1,71,0.00,,,0.00,pywws,2013-03-24 18:05:00,
2013-03-24 18:10:00,34.5,25.8,30.30,WNW,292,3.1,6.0,70,0.00,,,0.00,pywws,2013-03-24 18:10:00,
2013-03-24 18:15:00,34.7,25.6,30.30,South,180,2.2,3.8,69,0.00,,,0.00,pywws,2013-03-24 18:15:00,
2013-03-24 18:20:00,34.7,26.3,30.30,North,0,3.8,9.2,71,0.00,,,0.00,pywws,2013-03-24 18:20:00,
2013-03-24 18:25:00,34.5,26.4,30.30,SW,225,3.1,5.4,72,0.00,,,0.00,pywws,2013-03-24 18:25:00,
2013-03-24 18:30:00,34.5,26.8,30.30,SE,135,3.1,6.9,73,0.00,,,0.00,pywws,2013-03-24 18:30:00,
2013-03-24 18:35:00,34.3,26.6,30.30,West,270,1.6,3.1,73,0.00,,,0.00,pywws,2013-03-24 18:35:00,
2013-03-24 18:40:00,34.3,26.6,30.30,West,270,2.2,6.0,73,0.00,,,0.00,pywws,2013-03-24 18:40:00,
2013-03-24 18:45:00,34.3,26.6,30.30,NW,315,3.8,6.9,73,0.00,,,0.00,pywws,2013-03-24 18:45:00,
2013-03-24 18:50:00,34.3,26.3,30.30,SW,225,5.4,9.2,72,0.00,,,0.00,pywws,2013-03-24 18:50:00,
2013-03-24 19:00:00,34.3,26.3,30.30,West,270,3.1,8.3,72,0.00,,,0.00,pywws,2013-03-24 19:00:00,
2013-03-24 19:05:00,34.5,26.1,30.30,SSW,202,1.6,5.4,71,0.00,,,0.00,pywws,2013-03-24 19:05:00,
2013-03-24 19:10:00,34.5,26.1,30.31,SE,135,6.0,10.7,71,0.00,,,0.00,pywws,2013-03-24 19:10:00,
2013-03-24 19:15:00,34.5,26.1,30.31,SSW,202,1.6,4.5,71,0.00,,,0.00,pywws,2013-03-24 19:15:00,
2013-03-24 19:20:00,34.5,26.1,30.30,SW,225,3.8,9.8,71,0.00,,,0.00,pywws,2013-03-24 19:20:00,
2013-03-24 19:25:00,34.5,26.1,30.30,North,0,0.7,3.1,71,0.00,,,0.00,pywws,2013-03-24 19:25:00,
2013-03-24 19:30:00,34.5,25.8,30.30,ESE,112,1.6,6.0,70,0.00,,,0.00,pywws,2013-03-24 19:30:00,
2013-03-24 19:35:00,34.5,25.8,30.31,SW,225,3.1,6.0,70,0.00,,,0.00,pywws,2013-03-24 19:35:00,
2013-03-24 19:40:00,34.5,25.4,30.30,North,0,2.2,7.6,69,0.00,,,0.00,pywws,2013-03-24 19:40:00,
2013-03-24 19:45:00,34.7,25.6,30.31,SW,225,3.1,9.2,69,0.00,,,0.00,pywws,2013-03-24 19:45:00,
2013-03-24 19:50:00,34.7,25.2,30.31,South,180,4.5,9.2,68,0.00,,,0.00,pywws,2013-03-24 19:50:00,
2013-03-24 20:00:00,34.7,25.2,30.31,SE,135,1.6,3.8,68,0.00,,,0.00,pywws,2013-03-24 20:00:00,
2013-03-24 20:05:00,34.7,25.6,30.31,SW,225,2.2,6.0,69,0.00,,,0.00,pywws,2013-03-24 20:05:00,
2013-03-24 20:10:00,34.7,25.6,30.32,NW,315,4.5,9.8,69,0.00,,,0.00,pywws,2013-03-24 20:10:00,
2013-03-24 20:15:00,34.7,25.9,30.32,South,180,6.0,11.4,70,0.00,,,0.00,pywws,2013-03-24 20:15:00,
2013-03-24 20:20:00,34.5,26.1,30.32,SW,225,5.4,11.4,71,0.00,,,0.00,pywws,2013-03-24 20:20:00,
2013-03-24 20:25:00,34.5,26.1,30.32,SW,225,1.6,3.8,71,0.00,,,0.00,pywws,2013-03-24 20:25:00,
2013-03-24 20:30:00,34.5,26.1,30.32,NW,315,3.1,9.2,71,0.00,,,0.00,pywws,2013-03-24 20:30:00,
2013-03-24 20:35:00,34.5,25.8,30.32,NE,45,4.5,8.3,70,0.00,,,0.00,pywws,2013-03-24 20:35:00,
2013-03-24 20:40:00,34.7,25.6,30.32,NW,315,5.4,9.8,69,0.00,,,0.00,pywws,2013-03-24 20:40:00,
2013-03-24 20:45:00,34.7,25.9,30.32,SSW,202,1.6,6.0,70,0.00,,,0.00,pywws,2013-03-24 20:45:00,
2013-03-24 20:50:00,34.7,25.9,30.32,SW,225,3.8,6.9,70,0.00,,,0.00,pywws,2013-03-24 20:50:00,
2013-03-24 21:00:00,34.5,25.8,30.32,West,270,4.5,9.2,70,0.00,,,0.00,pywws,2013-03-24 21:00:00,
2013-03-24 21:05:00,34.5,26.1,30.32,South,180,3.1,9.2,71,0.00,,,0.00,pywws,2013-03-24 21:05:00,
2013-03-24 21:10:00,34.5,26.1,30.32,SW,225,1.6,6.0,71,0.00,,,0.00,pywws,2013-03-24 21:10:00,
2013-03-24 21:15:00,34.5,26.1,30.32,SE,135,1.6,6.0,71,0.00,,,0.00,pywws,2013-03-24 21:15:00,
2013-03-24 21:20:00,34.5,25.8,30.32,SW,225,1.6,7.6,70,0.00,,,0.00,pywws,2013-03-24 21:20:00,
2013-03-24 21:25:00,34.5,25.8,30.32,NW,315,3.1,6.9,70,0.00,,,0.00,pywws,2013-03-24 21:25:00,
2013-03-24 21:30:00,34.5,26.1,30.32,SE,135,2.2,4.5,71,0.00,,,0.00,pywws,2013-03-24 21:30:00,
2013-03-24 21:35:00,34.5,26.1,30.32,SW,225,3.1,9.2,71,0.00,,,0.00,pywws,2013-03-24 21:35:00,
2013-03-24 21:40:00,34.5,26.1,30.32,South,180,2.2,3.8,71,0.00,,,0.00,pywws,2013-03-24 21:40:00,
2013-03-24 21:45:00,34.5,26.1,30.32,NNW,338,3.1,6.9,71,0.00,,,0.00,pywws,2013-03-24 21:45:00,
2013-03-24 21:50:00,34.5,25.8,30.32,NW,315,3.8,9.8,70,0.00,,,0.00,pywws,2013-03-24 21:50:00,
2013-03-24 22:00:00,34.5,25.8,30.32,NW,315,2.2,5.4,70,0.00,,,0.00,pywws,2013-03-24 22:00:00,
2013-03-24 22:05:00,34.5,25.1,30.32,NW,315,3.8,17.5,68,0.00,,,0.00,pywws,2013-03-24 22:05:00,
2013-03-24 22:10:00,34.5,25.4,30.32,South,180,2.2,4.5,69,0.00,,,0.00,pywws,2013-03-24 22:10:00,
2013-03-24 22:15:00,34.5,25.4,30.32,NW,315,3.1,6.0,69,0.00,,,0.00,pywws,2013-03-24 22:15:00,
2013-03-24 22:20:00,34.5,25.1,30.32,NE,45,2.2,5.4,68,0.00,,,0.00,pywws,2013-03-24 22:20:00,
2013-03-24 22:25:00,34.5,24.7,30.33,West,270,3.8,8.3,67,0.00,,,0.00,pywws,2013-03-24 22:25:00,
2013-03-24 22:30:00,34.5,25.1,30.32,NW,315,3.8,9.2,68,0.00,,,0.00,pywws,2013-03-24 22:30:00,
2013-03-24 22:35:00,34.5,25.1,30.33,NW,315,2.2,6.9,68,0.00,,,0.00,pywws,2013-03-24 22:35:00,
2013-03-24 22:40:00,34.5,25.4,30.33,NW,315,3.1,6.0,69,0.00,,,0.00,pywws,2013-03-24 22:40:00,
2013-03-24 22:45:00,34.5,25.8,30.33,South,180,3.1,7.6,70,0.00,,,0.00,pywws,2013-03-24 22:45:00,
2013-03-24 22:50:00,34.3,25.6,30.33,ENE,68,4.5,9.2,70,0.00,,,0.00,pywws,2013-03-24 22:50:00,
2013-03-24 22:55:00,34.3,25.9,30.33,NW,315,3.1,5.4,71,0.00,,,0.00,pywws,2013-03-24 22:55:00,
2013-03-24 23:00:00,34.2,26.1,30.33,South,180,4.5,9.2,72,0.00,,,0.00,pywws,2013-03-24 23:00:00,
2013-03-24 23:05:00,34.2,26.1,30.32,SE,135,4.5,9.2,72,0.00,,,0.00,pywws,2013-03-24 23:05:00,
2013-03-24 23:10:00,34.2,26.1,30.33,West,270,2.2,5.4,72,0.00,,,0.00,pywws,2013-03-24 23:10:00,
2013-03-24 23:15:00,34.2,26.1,30.33,SW,225,2.2,6.9,72,0.00,,,0.00,pywws,2013-03-24 23:15:00,
2013-03-24 23:20:00,34.2,26.1,30.32,SW,225,3.8,9.2,72,0.00,,,0.00,pywws,2013-03-24 23:20:00,
2013-03-24 23:25:00,34.2,26.1,30.32,SE,135,3.1,6.9,72,0.00,,,0.00,pywws,2013-03-24 23:25:00,
2013-03-24 23:30:00,34.2,25.8,30.33,NE,45,3.8,8.3,71,0.00,,,0.00,pywws,2013-03-24 23:30:00,
2013-03-24 23:35:00,34.2,25.8,30.33,South,180,1.6,4.5,71,0.00,,,0.00,pywws,2013-03-24 23:35:00,
2013-03-24 23:40:00,34.2,25.4,30.32,South,180,1.6,4.5,70,0.00,,,0.00,pywws,2013-03-24 23:40:00,
2013-03-24 23:45:00,34.2,25.1,30.33,North,-999,0.0,1.6,69,0.00,,,0.00,pywws,2013-03-24 23:45:00,
2013-03-24 23:50:00,34.2,25.1,30.33,SW,225,1.6,6.0,69,0.00,,,0.00,pywws,2013-03-24 23:50:00,